ブラジリア の空港の天気 - METARとTAF

ブラジリア国際空港 ( SBBR / BSB ) - ブラジル ブラジリア
飛行場実況気象(Metar)
観測時間04/25 03:00 BRT (04/25 06:00 UTC)
風向・風速静穏 0m/s
視程10km以上
天気現象
なし
気温15℃
湿度94%
気圧1021hPa
METARSBBR 250600Z 00000KT CAVOK 15/14 Q1021
過去の天気等 Google飛行場航空写真 Wunderground天気予報

過去48時間のMETAR

飛行場予報(TAF)
発表時間: 4/25 01:00 BRT (4/25 04:00 UTC)
予報対象時間: 25日3時 BRT ~ 26日3時 BRT
風向・風速東南東 2m/s
視程10km以上
なし
25日5時 BRT ~ 25日7時 BRT に徐々に
風向・風速東 4m/s
視程10km以上
少しの雲 雲底高度 550m
25日8時 BRT ~ 25日9時 BRT に徐々に
風向・風速東 5m/s
全天の4割程度の雲 雲底高度 760m
25日11時 BRT ~ 25日13時 BRT に徐々に
風向・風速東 5m/s
全天の8割程度の雲 雲底高度 1,070m
25日13時 BRT ~ 25日19時 BRT に一時的に
視程8,000m
天気現象
全天の8割程度の雲 雲底高度 1,070m
少しの塔状積雲 雲底高度 1,220m
25日16時 BRT ~ 25日18時 BRT に徐々に
風向・風速東南東 3m/s
少しの雲 雲底高度 1,220m
25日20時 BRT ~ 25日22時 BRT に徐々に
風向・風速静穏
視程10km以上
なし
TAF SBBR 250400Z 2506/2606 12004KT CAVOK TN15/2508Z TX26/2518Z
BECMG 2508/2510 10007KT 9999 FEW018
BECMG 2511/2512 08010KT SCT025
BECMG 2514/2516 10009KT BKN035
TEMPO 2516/2522 8000 RA BKN035 FEW040TCU
BECMG 2519/2521 12006KT FEW040
BECMG 2523/2601 00000KT CAVOK RMK PEJ